Khamis Mushait, Saudi Arabia
Current Conditions -  °F | °C
As of 11:00 AM on Friday 24 Oct 2014 (Local Time) from OEKM Reporting Station
Clear Clear  
Wind Chill: 68°   Ceiling: Unl
Heat Index: 68°   Visibility: 6mi
Dew Point: 23°   Wind: 5mph
Humidity: 18%   Direction: 90°E
Pressure: 30.33"   Gusts: NA
Location:  18.3°N, 42.8°E
Report Text: OEKM 240800Z 09004KT CAVOK 20/M05 Q1027 NOSIG
Loading
Personal Weather Stations






























Interactive Weather Map
Tropical Storm Tracking
New forecast layout! Learn more

10-Day Weather Forecast

Advertisements
Track Severe Weather on mobile